createdAt,value
2019-05-22T05:09:22.491Z,5.13
2019-05-22T05:11:50.980Z,5.20
2019-05-22T05:14:19.797Z,5.10
2019-05-22T05:16:48.283Z,5.83
2019-05-22T05:19:17.122Z,4.00
2019-05-22T05:21:45.597Z,5.03
2019-05-22T05:24:14.058Z,5.07
2019-05-22T05:26:42.576Z,5.57
2019-05-22T05:29:28.062Z,5.20
2019-05-22T05:31:56.567Z,5.73
2019-05-22T05:34:31.369Z,5.80
2019-05-22T05:37:03.346Z,5.17
2019-05-22T05:40:45.895Z,5.70
2019-05-22T05:43:15.258Z,5.30
2019-05-22T05:45:43.992Z,7.60
2019-05-22T05:48:15.123Z,5.97
2019-05-22T05:50:54.613Z,7.77
2019-05-22T05:53:23.359Z,5.20
2019-05-22T05:56:23.627Z,5.87
2019-05-22T05:58:52.104Z,5.67
2019-05-22T06:01:24.135Z,6.73
2019-05-22T06:03:52.677Z,5.67
2019-05-22T06:07:34.234Z,6.87
2019-05-22T06:10:33.173Z,6.20
2019-05-22T06:13:02.971Z,7.03
2019-05-22T06:15:46.560Z,7.77
2019-05-22T06:18:16.650Z,5.77
2019-05-22T06:21:02.484Z,6.43
2019-05-22T06:25:22.281Z,4.27
2019-05-22T06:27:52.799Z,6.43
2019-05-22T06:30:26.773Z,7.00
2019-05-22T06:33:07.805Z,5.23
2019-05-22T06:35:36.739Z,6.07
2019-05-22T06:38:12.279Z,6.00
2019-05-22T06:40:40.978Z,5.70
2019-05-22T06:43:14.943Z,5.83
2019-05-22T06:45:43.511Z,8.40
2019-05-22T06:48:12.273Z,7.77
2019-05-22T06:50:40.529Z,6.37
2019-05-22T06:53:10.300Z,7.23
2019-05-22T06:55:37.801Z,7.37
2019-05-22T06:58:06.062Z,6.67
2019-05-22T07:00:34.558Z,5.23
2019-05-22T07:03:03.046Z,5.07
2019-05-22T07:05:31.822Z,5.60
2019-05-22T07:08:00.497Z,6.07
2019-05-22T07:10:29.058Z,5.03
2019-05-22T07:12:57.501Z,6.50
2019-05-22T07:15:28.966Z,8.73
2019-05-22T07:17:57.794Z,7.17
2019-05-22T07:20:26.316Z,6.10
2019-05-22T07:22:55.053Z,6.13
2019-05-22T07:25:23.608Z,6.10
2019-05-22T07:27:52.305Z,6.37
2019-05-22T07:30:20.798Z,6.37
2019-05-22T07:32:49.323Z,5.47
2019-05-22T07:35:18.807Z,9.17
2019-05-22T07:37:47.746Z,6.87
2019-05-22T07:40:16.454Z,9.13
2019-05-22T07:42:45.181Z,5.97
2019-05-22T07:45:13.387Z,4.87
2019-05-22T07:47:41.901Z,5.73
2019-05-22T07:50:10.409Z,7.23
2019-05-22T07:52:39.137Z,6.13
2019-05-22T07:55:07.923Z,6.80
2019-05-22T07:57:36.469Z,3.30
2019-05-22T08:00:05.281Z,8.53
2019-05-22T08:02:34.477Z,6.30
2019-05-22T08:05:03.176Z,6.53
2019-05-22T08:07:31.672Z,5.87
2019-05-22T08:10:00.402Z,8.13
2019-05-22T08:12:28.617Z,7.00
2019-05-22T08:14:57.393Z,4.97
2019-05-22T08:17:26.137Z,3.60
2019-05-22T08:19:54.383Z,7.23
2019-05-22T08:22:23.106Z,5.57
2019-05-22T08:24:51.871Z,5.30
2019-05-22T08:27:22.471Z,7.40
2019-05-22T08:29:50.939Z,7.70
2019-05-22T08:32:19.501Z,7.17
2019-05-22T08:34:48.173Z,7.60
2019-05-22T08:37:16.857Z,8.00
2019-05-22T08:39:45.670Z,7.50
2019-05-22T08:42:14.419Z,6.57
2019-05-22T08:44:43.330Z,4.40
2019-05-22T08:47:11.854Z,7.80
2019-05-22T08:49:40.612Z,9.77
2019-05-22T08:52:22.523Z,7.10
2019-05-22T08:54:38.026Z,8.93
2019-05-22T08:57:07.640Z,10.60
2019-05-22T08:59:36.343Z,12.70
2019-05-22T09:02:05.163Z,10.30
2019-05-22T09:04:33.659Z,9.67
2019-05-22T09:07:02.387Z,9.80
2019-05-22T09:09:30.867Z,9.50
2019-05-22T09:11:59.130Z,9.47
2019-05-22T09:14:27.854Z,5.57
2019-05-22T09:16:57.000Z,4.30
2019-05-22T09:19:25.483Z,10.70
2019-05-22T09:21:54.634Z,13.13
2019-05-22T09:24:23.408Z,14.13
2019-05-22T09:26:52.192Z,14.83
2019-05-22T09:29:20.714Z,13.87
2019-05-22T09:31:49.229Z,12.77
2019-05-22T09:34:17.739Z,14.83
2019-05-22T09:36:46.486Z,11.53
2019-05-22T09:39:14.742Z,13.50
2019-05-22T09:41:43.539Z,14.03
2019-05-22T09:44:15.151Z,12.73
2019-05-22T09:46:41.054Z,13.87
2019-05-22T09:49:10.389Z,10.30
2019-05-22T09:51:39.187Z,8.13
2019-05-22T09:54:08.136Z,4.73
2019-05-22T09:56:36.901Z,6.27
2019-05-22T09:59:05.403Z,8.30
2019-05-22T10:01:34.146Z,3.27
2019-05-22T10:04:02.866Z,8.50
2019-05-22T10:06:31.691Z,36.10
2019-05-22T10:09:00.158Z,9.37
2019-05-22T10:11:28.923Z,8.53
2019-05-22T10:13:57.653Z,9.80
2019-05-22T10:16:26.426Z,4.47
2019-05-22T10:18:54.902Z,3.80
2019-05-22T10:21:23.383Z,7.57
2019-05-22T10:23:51.867Z,8.07
2019-05-22T10:26:20.702Z,8.33
2019-05-22T10:28:49.238Z,5.57
2019-05-22T10:31:18.092Z,10.87
2019-05-22T10:33:46.691Z,6.37
2019-05-22T10:36:15.823Z,5.10
2019-05-22T10:38:45.094Z,8.67
2019-05-22T10:41:14.177Z,11.53
2019-05-22T10:43:42.864Z,11.90
2019-05-22T10:46:11.676Z,16.83
2019-05-22T10:48:40.884Z,17.57
2019-05-22T10:51:09.010Z,11.20
2019-05-22T10:53:38.035Z,10.10
2019-05-22T10:56:06.570Z,15.07
2019-05-22T10:58:34.789Z,13.23
2019-05-22T11:01:03.286Z,13.47
2019-05-22T11:03:31.553Z,12.00
2019-05-22T11:06:07.210Z,12.73
2019-05-22T11:08:34.030Z,15.47
2019-05-22T11:10:58.237Z,11.43
2019-05-22T11:13:27.178Z,11.90
2019-05-22T11:15:56.291Z,13.33
2019-05-22T11:18:24.709Z,11.67
2019-05-22T11:20:53.162Z,13.27
2019-05-22T11:23:21.646Z,7.10
2019-05-22T11:25:50.375Z,13.50
2019-05-22T11:28:19.100Z,9.57
2019-05-22T11:30:47.576Z,11.73
2019-05-22T11:33:16.263Z,14.93
2019-05-22T11:35:45.050Z,17.23
2019-05-22T11:38:13.789Z,24.47
2019-05-22T11:40:42.525Z,19.70
2019-05-22T11:43:11.850Z,22.63
2019-05-22T11:45:40.511Z,15.43
2019-05-22T11:48:09.073Z,12.03
2019-05-22T11:50:38.230Z,25.07
2019-05-22T11:53:06.906Z,23.67
2019-05-22T11:55:45.253Z,22.60
2019-05-22T11:58:04.133Z,24.70
2019-05-22T12:00:32.633Z,19.30
2019-05-22T12:03:01.162Z,23.97
2019-05-22T12:05:29.675Z,23.50
2019-05-22T12:07:58.439Z,18.03
2019-05-22T12:10:26.950Z,26.13
2019-05-22T12:12:55.499Z,23.93
2019-05-22T12:15:24.443Z,15.03
2019-05-22T12:17:53.404Z,20.73
2019-05-22T12:20:22.121Z,9.40
2019-05-22T12:22:50.552Z,18.33
2019-05-22T12:25:19.481Z,13.00
2019-05-22T12:27:48.277Z,20.33
2019-05-22T12:30:16.911Z,22.67
2019-05-22T12:32:45.449Z,14.27
2019-05-22T12:35:13.731Z,25.43
2019-05-22T12:37:42.220Z,25.17
2019-05-22T12:40:11.481Z,20.50
2019-05-22T12:42:39.760Z,17.40
2019-05-22T12:45:08.469Z,25.53
2019-05-22T12:47:37.247Z,19.23
2019-05-22T12:50:05.509Z,19.57
2019-05-22T12:52:34.043Z,16.60
2019-05-22T12:55:03.581Z,18.13
2019-05-22T12:57:32.351Z,15.80
2019-05-22T13:00:02.518Z,20.47
2019-05-22T13:02:29.709Z,15.80
2019-05-22T13:04:59.364Z,16.60
2019-05-22T13:07:27.614Z,9.80
2019-05-22T13:09:56.437Z,12.57
2019-05-22T13:12:25.054Z,15.03
2019-05-22T13:15:08.320Z,13.60
2019-05-22T13:17:21.837Z,15.73
2019-05-22T13:19:50.795Z,13.33
2019-05-22T13:22:19.553Z,11.20
2019-05-22T13:24:47.790Z,9.83
2019-05-22T13:27:16.274Z,12.33
2019-05-22T13:29:45.123Z,15.07
2019-05-22T13:32:14.209Z,9.83
2019-05-22T13:34:42.887Z,12.63
2019-05-22T13:37:11.395Z,12.50
2019-05-22T13:39:40.124Z,8.43
2019-05-22T13:42:08.414Z,8.00
2019-05-22T13:44:37.213Z,9.53
2019-05-22T13:47:05.897Z,7.40
2019-05-22T13:49:35.165Z,7.00
2019-05-22T13:52:03.943Z,6.10
2019-05-22T13:54:32.431Z,7.50
2019-05-22T13:57:01.440Z,5.97
2019-05-22T13:59:29.682Z,8.20
2019-05-22T14:01:58.214Z,5.23
2019-05-22T14:04:26.789Z,3.80
2019-05-22T14:06:55.438Z,4.70
2019-05-22T14:09:24.224Z,4.20
2019-05-22T14:11:52.942Z,3.63
2019-05-22T14:14:21.446Z,4.83
2019-05-22T14:16:50.370Z,6.47
2019-05-22T14:19:19.104Z,3.63
2019-05-22T14:21:51.243Z,3.33
2019-05-22T14:24:16.366Z,3.73
2019-05-22T14:26:45.666Z,3.40
2019-05-22T14:29:14.141Z,3.27
2019-05-22T14:31:42.651Z,4.47
2019-05-22T14:34:11.134Z,3.50
2019-05-22T14:36:39.627Z,3.70
2019-05-22T14:39:08.136Z,2.90
2019-05-22T14:41:37.235Z,1.90
2019-05-22T14:44:05.494Z,1.80
2019-05-22T14:46:34.004Z,1.67
2019-05-22T14:49:02.240Z,4.67
2019-05-22T14:51:30.721Z,4.27
2019-05-22T14:53:59.624Z,4.30
2019-05-22T14:56:28.114Z,4.03
2019-05-22T14:58:56.371Z,3.43
2019-05-22T15:01:25.110Z,3.80
2019-05-22T15:03:53.605Z,5.30
2019-05-22T15:06:22.593Z,4.50
2019-05-22T15:08:51.350Z,3.40
2019-05-22T15:11:19.847Z,5.17
2019-05-22T15:13:49.141Z,4.07
2019-05-22T15:16:17.369Z,3.27
2019-05-22T15:18:45.852Z,5.87
2019-05-22T15:21:15.509Z,7.03
2019-05-22T15:23:44.236Z,5.20
2019-05-22T15:26:12.746Z,4.87
2019-05-22T15:28:41.423Z,6.53
2019-05-22T15:31:10.079Z,6.77
2019-05-22T15:33:38.781Z,5.17
2019-05-22T15:36:08.310Z,5.73
2019-05-22T15:38:37.627Z,5.03
2019-05-22T15:41:06.113Z,6.70
2019-05-22T15:43:34.626Z,7.77
2019-05-22T15:46:03.117Z,6.63
2019-05-22T15:48:32.031Z,9.10
2019-05-22T15:51:00.750Z,7.40
2019-05-22T15:53:29.489Z,5.63
2019-05-22T15:55:57.988Z,6.03
2019-05-22T15:58:26.243Z,5.80
2019-05-22T16:00:55.015Z,6.43
2019-05-22T16:03:24.007Z,6.07
2019-05-22T16:05:52.913Z,6.53
2019-05-22T16:08:21.644Z,5.07
2019-05-22T16:10:50.155Z,7.60
2019-05-22T16:13:19.694Z,5.97
2019-05-22T16:15:47.943Z,5.93
2019-05-22T16:18:17.404Z,9.50
2019-05-22T16:20:46.155Z,5.50
2019-05-22T16:23:14.631Z,7.53
2019-05-22T16:25:43.145Z,7.33
2019-05-22T16:28:11.863Z,6.07
2019-05-22T16:30:40.616Z,9.27
2019-05-22T16:33:09.452Z,10.17
2019-05-22T16:35:38.121Z,10.17
2019-05-22T16:38:06.779Z,8.27
2019-05-22T16:40:35.269Z,8.17
2019-05-22T16:43:03.756Z,6.57
2019-05-22T16:45:32.494Z,7.23
2019-05-22T16:48:01.776Z,5.17
2019-05-22T16:50:30.547Z,7.13
2019-05-22T16:52:59.455Z,7.13
2019-05-22T16:55:27.959Z,6.63
2019-05-22T16:57:56.190Z,6.83
2019-05-22T17:00:24.868Z,8.87
2019-05-22T17:02:53.693Z,8.17
2019-05-22T17:05:22.207Z,6.23
2019-05-22T17:07:51.418Z,7.93
2019-05-22T17:10:20.290Z,8.30
2019-05-22T17:12:48.777Z,8.30
2019-05-22T17:15:17.532Z,9.13
2019-05-22T17:17:46.098Z,5.47
2019-05-22T17:20:14.978Z,5.77
2019-05-22T17:22:43.648Z,5.93
2019-05-22T17:25:12.432Z,6.73
2019-05-22T17:27:41.394Z,5.37
2019-05-22T17:30:09.941Z,7.90
2019-05-22T17:32:38.174Z,5.57
2019-05-22T17:35:06.899Z,13.77
2019-05-22T17:37:35.130Z,4.60
2019-05-22T17:40:04.362Z,5.30
2019-05-22T17:42:32.462Z,3.67
2019-05-22T17:45:01.222Z,3.53
2019-05-22T17:47:29.963Z,3.43
2019-05-22T17:49:59.081Z,3.83
2019-05-22T17:52:27.640Z,3.90
2019-05-22T17:54:56.308Z,3.60
2019-05-22T17:57:24.792Z,3.73
2019-05-22T17:59:53.882Z,3.27
2019-05-22T18:02:24.261Z,4.33
2019-05-22T18:04:52.775Z,4.80
2019-05-22T18:07:21.271Z,4.60
2019-05-22T18:09:49.962Z,3.20
2019-05-22T18:12:18.642Z,4.33
2019-05-22T18:14:47.374Z,4.10
2019-05-22T18:17:15.630Z,3.83
2019-05-22T18:19:44.138Z,4.37
2019-05-22T18:22:13.180Z,4.50
2019-05-22T18:24:41.680Z,4.80
2019-05-22T18:27:10.412Z,5.23
2019-05-22T18:29:39.163Z,4.77
2019-05-22T18:32:07.915Z,5.77
2019-05-22T18:34:36.419Z,4.83
2019-05-22T18:37:05.236Z,3.50
2019-05-22T18:39:33.483Z,4.90
2019-05-22T18:42:02.300Z,5.30
2019-05-22T18:44:30.547Z,4.50
2019-05-22T18:46:59.282Z,3.90
2019-05-22T18:49:27.953Z,5.57
2019-05-22T18:51:56.209Z,4.27
2019-05-22T18:54:24.973Z,3.33
2019-05-22T18:56:53.639Z,3.27
2019-05-22T18:59:22.139Z,6.10
2019-05-22T19:01:51.103Z,6.27
2019-05-22T19:04:19.599Z,5.10
2019-05-22T19:06:48.347Z,5.17
2019-05-22T19:09:17.109Z,5.07
2019-05-22T19:11:45.620Z,4.57
2019-05-22T19:14:14.108Z,4.27
2019-05-22T19:16:42.607Z,4.13
2019-05-22T19:19:11.090Z,5.40
2019-05-22T19:21:39.862Z,6.43
2019-05-22T19:24:08.957Z,6.33
2019-05-22T19:26:37.451Z,4.73
2019-05-22T19:29:06.542Z,5.20
2019-05-22T19:31:35.207Z,5.67
2019-05-22T19:34:03.958Z,5.27
2019-05-22T19:36:32.551Z,11.97
2019-05-22T19:39:00.817Z,4.20
2019-05-22T19:41:30.068Z,5.97
2019-05-22T19:43:58.559Z,4.97
2019-05-22T19:46:27.445Z,6.07
2019-05-22T19:48:56.103Z,4.30
2019-05-22T19:51:24.621Z,4.77
2019-05-22T19:53:53.546Z,5.40
2019-05-22T19:56:23.873Z,4.90
2019-05-22T19:58:50.569Z,5.90
2019-05-22T20:01:19.678Z,5.37
2019-05-22T20:03:48.459Z,4.77
2019-05-22T20:06:17.009Z,4.53
2019-05-22T20:08:45.787Z,5.03
2019-05-22T20:11:14.521Z,6.37
2019-05-22T20:13:43.372Z,4.97
2019-05-22T20:16:12.487Z,5.37
2019-05-22T20:18:41.268Z,6.17
2019-05-22T20:21:10.023Z,3.60
2019-05-22T20:23:39.258Z,3.93
2019-05-22T20:26:07.974Z,4.93
2019-05-22T20:28:36.237Z,4.93
2019-05-22T20:31:04.776Z,4.67
2019-05-22T20:33:33.270Z,3.97
2019-05-22T20:36:02.086Z,4.93
2019-05-22T20:38:30.535Z,3.90
2019-05-22T20:40:59.022Z,5.67
2019-05-22T20:43:27.529Z,4.20
2019-05-22T20:45:56.599Z,4.83
2019-05-22T20:48:26.343Z,4.27
2019-05-22T20:50:55.662Z,4.77
2019-05-22T20:53:24.307Z,4.03
2019-05-22T20:55:52.815Z,4.67
